VTSS/HDY METAR and TAF weather

Enter ICAO airport designator
Station Type Date Time Source
VTSS METAR 2020/06/03 21:00 UTC NOAA

VTSS 032100Z 26002KT 0500 R26/1200D FG VV002 25/25 Q1009 NOSIG


Station Type Date Time Source
VTSS Decoded METAR 2020/06/03 21:00 UTC NOAA

Hat Yai, Thailand (VTSS) 06-55N 100-26E 35M
Jun 03, 2020 - 05:00 PM EDT / 2020.06.03 2100 UTC
Wind: from the W (260 degrees) at 2 MPH (2 KT):0
Visibility: less than 1 mile:0
Sky conditions: obscured
Weather: fog
Temperature: 77 F (25 C)
Dew Point: 77 F (25 C)
Relative Humidity: 100%
Pressure (altimeter): 29.80 in. Hg (1009 hPa)
ob: VTSS 032100Z 26002KT 0500 R26/1200D FG VV002 25/25 Q1009 NOSIG
cycle: 21

Station Type Date Time Source
VTSS TAF 2020/06/03 18:36 UTC NOAA

TAF VTSS 031700Z 0318/0418 24005KT 5000 BR FEW020 SCT100
BECMG 0320/0322 0800 FG SCT005
BECMG 0401/0403 9999 NSW SCT020
TEMPO 0405/0411 VRB10G20KT 5000 TSRA FEW016CB SCT018 BKN100

Example: see airport list